Alta, Indiana
Current Conditions -  °F | °C
As of 5:35 AM on Sunday 21 Dec 2014 (Local Time) from KPRG Reporting Station
Haze Haze  
Wind Chill: 23°   Ceiling: 3100
Heat Index: 28°   Visibility: 5mi
Dew Point: 27°   Wind: 5mph
Humidity: 96%   Direction: 140°SE
Pressure: 30.27"   Gusts: NA
Location:  39.7643°N, 87.4119°W
Report Text: KPRG 211035Z AUTO 14004KT 5SM BR OVC031 M02/M03 A3027 RMK AO2 T10201026
Loading
Personal Weather Stations






























Interactive Weather Map New forecast layout! Learn more

10-Day Weather Forecast

Advertisements
Track Severe Weather on mobile